createdAt,value
2022-08-16T00:00:03.285Z,22.50
2022-08-16T00:02:32.249Z,22.50
2022-08-16T00:05:02.067Z,22.60
2022-08-16T00:07:30.415Z,22.60
2022-08-16T00:09:59.236Z,22.50
2022-08-16T00:12:28.045Z,22.50
2022-08-16T00:14:57.228Z,22.50
2022-08-16T00:17:26.246Z,22.40
2022-08-16T00:19:56.743Z,22.50
2022-08-16T00:22:27.787Z,22.50
2022-08-16T00:24:56.106Z,22.30
2022-08-16T00:27:25.113Z,22.40
2022-08-16T00:30:08.947Z,22.40
2022-08-16T00:32:45.267Z,22.40
2022-08-16T00:35:16.867Z,22.30
2022-08-16T00:37:57.898Z,22.20
2022-08-16T00:40:43.487Z,22.20
2022-08-16T00:43:19.225Z,22.00
2022-08-16T00:46:00.150Z,21.80
2022-08-16T00:48:31.757Z,21.70
2022-08-16T00:51:16.080Z,21.80
2022-08-16T00:53:47.632Z,21.70
2022-08-16T00:56:58.119Z,21.80
2022-08-16T00:59:08.614Z,21.60
2022-08-16T01:01:37.171Z,21.70
2022-08-16T01:04:07.294Z,21.80
2022-08-16T01:07:02.264Z,22.10
2022-08-16T01:09:34.240Z,21.60
2022-08-16T01:12:04.650Z,21.70
2022-08-16T01:14:43.508Z,21.80
2022-08-16T01:17:12.998Z,22.00
2022-08-16T01:19:44.124Z,22.20
2022-08-16T01:22:48.345Z,22.10
2022-08-16T01:25:12.911Z,21.70
2022-08-16T01:27:45.127Z,21.60
2022-08-16T01:30:20.471Z,21.60
2022-08-16T01:32:59.621Z,21.50
2022-08-16T01:35:36.356Z,21.40
2022-08-16T01:38:19.670Z,21.40
2022-08-16T01:40:51.637Z,21.50
2022-08-16T01:43:19.774Z,21.60
2022-08-16T01:45:57.800Z,21.50
2022-08-16T01:48:29.692Z,21.70
2022-08-16T01:51:09.299Z,21.60
2022-08-16T01:53:45.330Z,21.90
2022-08-16T01:56:26.902Z,22.10
2022-08-16T01:58:57.148Z,22.00
2022-08-16T02:01:28.395Z,22.10
2022-08-16T02:03:58.687Z,22.00
2022-08-16T02:06:39.672Z,22.10
2022-08-16T02:09:17.903Z,21.70
2022-08-16T02:11:53.146Z,21.30
2022-08-16T02:14:26.206Z,21.40
2022-08-16T02:16:55.201Z,21.60
2022-08-16T02:20:00.203Z,21.70
2022-08-16T02:22:34.288Z,21.70
2022-08-16T02:25:05.637Z,21.70
2022-08-16T02:27:35.523Z,21.60
2022-08-16T02:30:06.467Z,21.20
2022-08-16T02:32:50.709Z,21.10
2022-08-16T02:35:23.250Z,21.00
2022-08-16T02:37:53.444Z,20.80
2022-08-16T02:40:26.203Z,21.00
2022-08-16T02:42:57.029Z,20.80
2022-08-16T02:45:28.193Z,20.60
2022-08-16T02:48:01.586Z,20.70
2022-08-16T02:50:54.052Z,20.80
2022-08-16T02:53:32.531Z,20.80
2022-08-16T02:56:00.779Z,20.90
2022-08-16T02:58:34.160Z,20.80
2022-08-16T03:01:02.911Z,20.70
2022-08-16T03:04:29.628Z,21.00
2022-08-16T03:06:41.383Z,21.00
2022-08-16T03:09:13.903Z,21.30
2022-08-16T03:11:44.724Z,21.20
2022-08-16T03:14:21.239Z,21.20
2022-08-16T03:16:59.052Z,21.20
2022-08-16T03:19:46.779Z,21.10
2022-08-16T03:22:19.355Z,21.20
2022-08-16T03:24:57.746Z,21.20
2022-08-16T03:27:31.283Z,21.30
2022-08-16T03:30:16.948Z,21.20
2022-08-16T03:32:48.017Z,21.30
2022-08-16T03:35:21.822Z,21.50
2022-08-16T03:38:02.570Z,21.80
2022-08-16T03:40:33.243Z,21.70
2022-08-16T03:43:20.482Z,21.80
2022-08-16T03:45:53.380Z,21.70
2022-08-16T03:48:36.393Z,21.70
2022-08-16T03:51:08.565Z,21.60
2022-08-16T03:53:38.587Z,21.60
2022-08-16T03:56:19.564Z,21.60
2022-08-16T03:58:51.019Z,21.60
2022-08-16T04:01:23.317Z,21.60
2022-08-16T04:03:52.865Z,21.60
2022-08-16T04:06:23.279Z,21.60
2022-08-16T04:08:51.827Z,21.40
2022-08-16T04:11:20.289Z,21.50
2022-08-16T04:14:00.095Z,21.50
2022-08-16T04:16:38.019Z,21.50
2022-08-16T04:19:06.783Z,21.40
2022-08-16T04:21:47.159Z,21.40
2022-08-16T04:24:16.705Z,21.50
2022-08-16T04:26:46.346Z,21.40
2022-08-16T04:29:24.513Z,21.20
2022-08-16T04:31:57.801Z,21.00
2022-08-16T04:34:28.885Z,20.90
2022-08-16T04:37:01.029Z,21.00
2022-08-16T04:39:45.796Z,21.10
2022-08-16T04:42:16.215Z,21.20
2022-08-16T04:44:53.509Z,21.00
2022-08-16T04:47:25.550Z,21.00
2022-08-16T04:50:01.773Z,21.30
2022-08-16T04:52:34.608Z,21.00
2022-08-16T04:55:08.551Z,21.20
2022-08-16T04:57:37.918Z,21.40
2022-08-16T05:00:32.308Z,21.40
2022-08-16T05:03:07.501Z,21.60
2022-08-16T05:05:45.212Z,21.90
2022-08-16T05:08:28.020Z,22.10
2022-08-16T05:11:00.343Z,22.50
2022-08-16T05:13:40.322Z,22.50
2022-08-16T05:16:11.647Z,22.50
2022-08-16T05:18:41.580Z,22.70
2022-08-16T05:21:12.606Z,22.40
2022-08-16T05:23:40.988Z,22.60
2022-08-16T05:26:19.813Z,22.40
2022-08-16T05:28:55.751Z,21.90
2022-08-16T05:31:29.530Z,21.90
2022-08-16T05:34:00.715Z,22.00
2022-08-16T05:36:36.612Z,22.00
2022-08-16T05:39:07.773Z,21.80
2022-08-16T05:41:45.314Z,22.50
2022-08-16T05:44:24.213Z,22.50
2022-08-16T05:46:55.113Z,22.40
2022-08-16T05:49:39.595Z,22.30
2022-08-16T05:52:11.608Z,22.40
2022-08-16T05:54:46.611Z,22.70
2022-08-16T05:57:17.629Z,23.10
2022-08-16T05:59:50.644Z,23.40
2022-08-16T06:02:33.479Z,23.80
2022-08-16T06:05:03.791Z,23.30
2022-08-16T06:07:32.521Z,23.20
2022-08-16T06:10:01.585Z,23.20
2022-08-16T06:12:31.032Z,23.40
2022-08-16T06:15:01.938Z,23.70
2022-08-16T06:17:42.253Z,23.80
2022-08-16T06:20:23.471Z,24.00
2022-08-16T06:22:59.047Z,24.00
2022-08-16T06:25:36.407Z,24.00
2022-08-16T06:28:09.528Z,24.60
2022-08-16T06:30:44.106Z,25.00
2022-08-16T06:33:22.031Z,25.10
2022-08-16T06:35:55.089Z,24.90
2022-08-16T06:38:32.205Z,24.60
2022-08-16T06:41:05.470Z,24.40
2022-08-16T06:43:34.873Z,24.50
2022-08-16T06:46:06.139Z,25.00
2022-08-16T06:48:43.225Z,25.50
2022-08-16T06:51:14.735Z,25.60
2022-08-16T06:53:43.158Z,26.20
2022-08-16T06:56:14.382Z,25.90
2022-08-16T06:58:47.037Z,25.80
2022-08-16T07:01:15.935Z,26.10
2022-08-16T07:03:55.864Z,26.50
2022-08-16T07:06:27.685Z,27.20
2022-08-16T07:08:56.876Z,26.80
2022-08-16T07:11:45.797Z,26.80
2022-08-16T07:14:26.224Z,26.40
2022-08-16T07:16:59.109Z,26.60
2022-08-16T07:20:01.684Z,26.70
2022-08-16T07:22:37.345Z,27.20
2022-08-16T07:25:08.598Z,27.60
2022-08-16T07:27:38.775Z,27.40
2022-08-16T07:30:45.291Z,27.20
2022-08-16T07:32:59.833Z,27.80
2022-08-16T07:35:28.497Z,28.60
2022-08-16T07:37:58.550Z,28.30
2022-08-16T07:40:58.038Z,28.00
2022-08-16T07:43:15.474Z,28.20
2022-08-16T07:45:44.748Z,29.40
2022-08-16T07:48:15.470Z,29.90
2022-08-16T07:50:57.850Z,30.00
2022-08-16T07:53:30.254Z,30.10
2022-08-16T07:56:00.709Z,30.10
2022-08-16T07:58:35.079Z,29.90
2022-08-16T08:01:10.930Z,29.90
2022-08-16T08:03:47.671Z,30.00
2022-08-16T08:06:17.473Z,30.50
2022-08-16T08:08:50.424Z,30.80
2022-08-16T08:11:21.444Z,31.20
2022-08-16T08:13:50.765Z,30.70
2022-08-16T08:16:21.391Z,31.00
2022-08-16T08:18:55.925Z,31.10
2022-08-16T08:21:59.746Z,30.70
2022-08-16T08:24:18.433Z,30.90
2022-08-16T08:26:49.783Z,31.20
2022-08-16T08:29:22.865Z,30.70
2022-08-16T08:31:53.920Z,30.00
2022-08-16T08:34:23.194Z,30.30
2022-08-16T08:36:54.525Z,30.70
2022-08-16T08:39:25.722Z,31.50
2022-08-16T08:41:53.868Z,31.60
2022-08-16T08:44:29.174Z,32.40
2022-08-16T08:47:01.749Z,33.00
2022-08-16T08:49:45.998Z,33.40
2022-08-16T08:52:35.194Z,32.30
2022-08-16T08:55:10.470Z,31.50
2022-08-16T08:57:41.024Z,31.00
2022-08-16T09:00:13.082Z,31.10
2022-08-16T09:02:44.518Z,31.50
2022-08-16T09:05:16.191Z,32.00
2022-08-16T09:08:01.438Z,31.80
2022-08-16T09:10:32.590Z,31.50
2022-08-16T09:13:02.873Z,31.50
2022-08-16T09:15:32.674Z,31.40
2022-08-16T09:18:25.508Z,31.70
2022-08-16T09:20:59.719Z,31.70
2022-08-16T09:23:29.262Z,31.10
2022-08-16T09:25:59.324Z,31.30
2022-08-16T09:28:38.087Z,31.80
2022-08-16T09:31:17.401Z,31.60
2022-08-16T09:33:46.251Z,32.40
2022-08-16T09:36:32.211Z,32.80
2022-08-16T09:39:03.292Z,32.60
2022-08-16T09:41:33.645Z,32.70
2022-08-16T09:45:11.180Z,32.70
2022-08-16T09:46:55.927Z,32.00
2022-08-16T09:49:36.998Z,30.70
2022-08-16T09:52:06.212Z,29.20
2022-08-16T09:54:44.370Z,30.00
2022-08-16T09:57:14.286Z,31.00
2022-08-16T09:59:43.486Z,32.60
2022-08-16T10:02:27.326Z,32.00
2022-08-16T10:04:57.446Z,30.20
2022-08-16T10:07:26.146Z,30.40
2022-08-16T10:10:12.854Z,30.20
2022-08-16T10:13:06.610Z,30.10
2022-08-16T10:15:36.591Z,31.00
2022-08-16T10:18:41.028Z,32.00
2022-08-16T10:20:59.529Z,32.40
2022-08-16T10:23:29.686Z,32.80
2022-08-16T10:27:19.262Z,33.10
2022-08-16T10:28:47.414Z,32.90
2022-08-16T10:31:45.457Z,33.00
2022-08-16T10:34:23.999Z,32.30
2022-08-16T10:36:55.512Z,32.00
2022-08-16T10:39:23.794Z,32.70
2022-08-16T10:41:52.477Z,33.10
2022-08-16T10:44:21.921Z,33.10
2022-08-16T10:46:50.303Z,32.30
2022-08-16T10:49:18.503Z,31.80
2022-08-16T10:52:03.072Z,30.40
2022-08-16T10:54:58.456Z,31.30
2022-08-16T10:57:24.399Z,30.90
2022-08-16T10:59:58.298Z,32.20
2022-08-16T11:03:00.829Z,31.90
2022-08-16T11:05:18.476Z,33.30
2022-08-16T11:07:52.577Z,31.80
2022-08-16T11:19:05.328Z,31.60
2022-08-16T11:22:38.878Z,32.20
2022-08-16T11:24:39.475Z,32.70
2022-08-16T11:27:32.592Z,32.80
2022-08-16T11:29:58.402Z,33.30
2022-08-16T11:32:32.303Z,33.00
2022-08-16T11:35:14.122Z,31.10
2022-08-16T11:38:46.647Z,32.00
2022-08-16T11:40:47.058Z,32.40
2022-08-16T11:43:23.511Z,33.70
2022-08-16T11:45:54.563Z,33.40
2022-08-16T11:48:27.514Z,32.10
2022-08-16T11:50:56.513Z,33.20
2022-08-16T11:53:25.558Z,33.60
2022-08-16T11:55:55.340Z,33.30
2022-08-16T11:58:25.386Z,32.80
2022-08-16T12:00:55.609Z,31.80
2022-08-16T12:03:34.467Z,33.00
2022-08-16T12:06:08.160Z,33.10
2022-08-16T12:08:41.293Z,33.60
2022-08-16T12:11:11.463Z,33.30
2022-08-16T12:13:40.749Z,33.30
2022-08-16T12:16:09.534Z,33.50
2022-08-16T12:18:40.507Z,33.30
2022-08-16T12:21:09.852Z,32.80
2022-08-16T12:23:38.957Z,33.30
2022-08-16T12:26:07.953Z,33.70
2022-08-16T12:28:55.081Z,33.90
2022-08-16T12:31:26.301Z,33.10
2022-08-16T12:33:57.625Z,31.40
2022-08-16T12:36:29.921Z,31.90
2022-08-16T12:38:59.171Z,33.40
2022-08-16T12:41:27.582Z,34.00
2022-08-16T12:43:57.028Z,33.50
2022-08-16T12:46:31.200Z,33.50
2022-08-16T12:49:01.124Z,33.40
2022-08-16T12:51:59.835Z,33.20
2022-08-16T12:54:21.820Z,33.30
2022-08-16T12:56:50.372Z,33.70
2022-08-16T12:59:20.801Z,33.40
2022-08-16T13:01:55.430Z,33.40
2022-08-16T13:04:28.844Z,33.20
2022-08-16T13:09:42.224Z,33.90
2022-08-16T13:12:20.986Z,33.40
2022-08-16T13:14:50.362Z,32.60
2022-08-16T13:17:21.347Z,32.70
2022-08-16T13:20:10.971Z,33.10
2022-08-16T13:22:43.624Z,33.00
2022-08-16T13:25:20.993Z,32.90
2022-08-16T13:28:01.789Z,33.10
2022-08-16T13:30:41.971Z,33.10
2022-08-16T13:33:12.705Z,33.20
2022-08-16T13:35:55.966Z,33.10
2022-08-16T13:38:25.826Z,33.30
2022-08-16T13:40:56.919Z,33.70
2022-08-16T13:43:26.583Z,33.30
2022-08-16T13:45:55.946Z,32.40
2022-08-16T13:48:25.960Z,32.80
2022-08-16T13:50:58.030Z,33.30
2022-08-16T13:53:30.922Z,33.10
2022-08-16T13:56:00.763Z,33.60
2022-08-16T13:58:37.416Z,33.60
2022-08-16T14:01:19.444Z,32.80
2022-08-16T14:03:47.976Z,33.10
2022-08-16T14:06:18.614Z,32.80
2022-08-16T14:08:58.841Z,32.80
2022-08-16T14:11:34.163Z,33.40
2022-08-16T14:14:05.290Z,33.00
2022-08-16T14:16:34.929Z,32.40
2022-08-16T14:19:03.689Z,32.30
2022-08-16T14:21:35.392Z,32.40
2022-08-16T14:24:12.862Z,32.80
2022-08-16T14:26:51.159Z,32.80
2022-08-16T14:29:21.340Z,32.60
2022-08-16T14:31:53.879Z,32.60
2022-08-16T14:34:25.757Z,32.10
2022-08-16T14:36:59.446Z,32.20
2022-08-16T14:39:28.033Z,30.80
2022-08-16T14:41:56.192Z,31.80
2022-08-16T14:44:26.305Z,31.60
2022-08-16T14:46:55.279Z,32.20
2022-08-16T14:49:24.377Z,32.00
2022-08-16T14:51:52.574Z,31.60
2022-08-16T14:54:22.412Z,32.20
2022-08-16T14:56:56.924Z,32.00
2022-08-16T14:59:25.352Z,32.60
2022-08-16T15:01:58.841Z,32.30
2022-08-16T15:04:39.541Z,32.40
2022-08-16T15:07:17.890Z,32.40
2022-08-16T15:10:01.191Z,32.50
2022-08-16T15:12:33.880Z,32.40
2022-08-16T15:15:12.489Z,32.60
2022-08-16T15:17:54.604Z,32.70
2022-08-16T15:20:29.598Z,32.20
2022-08-16T15:22:59.610Z,32.10
2022-08-16T15:25:32.114Z,31.40
2022-08-16T15:28:04.715Z,30.70
2022-08-16T15:30:57.907Z,31.00
2022-08-16T15:33:26.283Z,31.90
2022-08-16T15:35:55.155Z,30.80
2022-08-16T15:38:57.480Z,31.30
2022-08-16T15:41:28.314Z,32.20
2022-08-16T15:44:05.484Z,31.80
2022-08-16T15:46:56.389Z,32.60
2022-08-16T15:49:37.272Z,32.70
2022-08-16T15:52:12.142Z,32.60
2022-08-16T15:54:55.283Z,32.80
2022-08-16T15:57:26.838Z,32.80
2022-08-16T15:59:56.376Z,32.40
2022-08-16T16:02:34.015Z,32.30
2022-08-16T16:05:04.498Z,32.30
2022-08-16T16:07:34.142Z,32.40
2022-08-16T16:10:05.353Z,32.30
2022-08-16T16:12:51.582Z,32.60
2022-08-16T16:15:25.275Z,32.00
2022-08-16T16:17:54.722Z,32.00
2022-08-16T16:20:27.489Z,32.10
2022-08-16T16:22:58.010Z,32.10
2022-08-16T16:25:28.262Z,32.20
2022-08-16T16:28:00.190Z,32.10
2022-08-16T16:30:38.122Z,31.70
2022-08-16T16:33:15.740Z,31.70
2022-08-16T16:35:55.436Z,31.60
2022-08-16T16:38:31.157Z,31.70
2022-08-16T16:41:00.504Z,31.60
2022-08-16T16:43:31.823Z,32.00
2022-08-16T16:46:01.954Z,32.20
2022-08-16T16:48:34.774Z,32.20
2022-08-16T16:51:09.454Z,31.80
2022-08-16T16:53:41.138Z,31.70
2022-08-16T16:56:20.127Z,31.30
2022-08-16T16:59:01.065Z,31.30
2022-08-16T17:01:41.328Z,31.40
2022-08-16T17:04:31.379Z,31.50
2022-08-16T17:07:01.207Z,31.30
2022-08-16T17:09:29.943Z,31.10
2022-08-16T17:11:58.577Z,31.30
2022-08-16T17:14:33.216Z,31.20
2022-08-16T17:17:06.816Z,31.40
2022-08-16T17:19:40.724Z,31.30
2022-08-16T17:22:14.344Z,31.20
2022-08-16T17:24:44.806Z,31.10
2022-08-16T17:27:15.332Z,31.10
2022-08-16T17:29:51.599Z,30.90
2022-08-16T17:32:33.936Z,30.80
2022-08-16T17:38:05.963Z,30.50
2022-08-16T17:39:27.208Z,30.60
2022-08-16T17:40:50.516Z,30.60
2022-08-16T17:43:28.786Z,30.60
2022-08-16T17:45:59.121Z,30.40
2022-08-16T17:48:28.472Z,30.40
2022-08-16T17:50:57.210Z,30.30
2022-08-16T17:53:25.840Z,30.30
2022-08-16T17:55:54.651Z,30.20
2022-08-16T17:58:24.317Z,30.10
2022-08-16T18:00:54.975Z,30.00
2022-08-16T18:04:02.463Z,29.90
2022-08-16T18:06:18.769Z,29.90
2022-08-16T18:08:49.462Z,29.80
2022-08-16T18:11:25.657Z,29.70
2022-08-16T18:13:55.602Z,29.60
2022-08-16T18:16:24.298Z,29.50
2022-08-16T18:18:53.770Z,29.30
2022-08-16T18:21:40.723Z,29.20
2022-08-16T18:24:09.903Z,29.10
2022-08-16T18:26:39.731Z,29.00
2022-08-16T18:29:08.610Z,28.90
2022-08-16T18:31:36.799Z,28.70
2022-08-16T18:34:07.444Z,28.50
2022-08-16T18:36:37.149Z,28.40
2022-08-16T18:39:06.079Z,28.20
2022-08-16T18:41:37.216Z,28.30
2022-08-16T18:44:26.604Z,28.30
2022-08-16T18:46:56.359Z,28.30
2022-08-16T18:49:26.289Z,28.20
2022-08-16T18:51:58.198Z,28.10
2022-08-16T18:54:28.255Z,28.00
2022-08-16T18:56:58.302Z,27.90
2022-08-16T18:59:33.143Z,27.90
2022-08-16T19:02:04.472Z,27.80
2022-08-16T19:04:55.770Z,27.70
2022-08-16T19:07:31.179Z,27.60
2022-08-16T19:10:00.999Z,27.50
2022-08-16T19:12:38.145Z,27.40
2022-08-16T19:15:14.171Z,27.40
2022-08-16T19:17:42.980Z,27.30
2022-08-16T19:20:14.326Z,27.10
2022-08-16T19:25:46.835Z,26.80
2022-08-16T19:28:33.411Z,26.60
2022-08-16T19:31:05.463Z,26.50
2022-08-16T19:33:33.928Z,26.50
2022-08-16T19:36:03.464Z,26.60
2022-08-16T19:38:32.189Z,26.50
2022-08-16T19:41:00.315Z,26.60
2022-08-16T19:43:28.387Z,26.50
2022-08-16T19:45:56.660Z,26.40
2022-08-16T19:48:24.750Z,26.30
2022-08-16T19:50:52.807Z,26.30
2022-08-16T19:53:22.363Z,26.10
2022-08-16T19:55:50.515Z,26.10
2022-08-16T19:58:20.224Z,25.90
2022-08-16T20:00:52.478Z,25.70
2022-08-16T20:03:25.444Z,25.50
2022-08-16T20:05:54.122Z,25.50
2022-08-16T20:08:23.769Z,25.40
2022-08-16T20:10:52.160Z,25.40
2022-08-16T20:13:24.215Z,25.40
2022-08-16T20:15:53.003Z,25.30
2022-08-16T20:18:25.242Z,24.80
2022-08-16T20:20:54.463Z,25.00
2022-08-16T20:23:25.187Z,25.00
2022-08-16T20:25:56.039Z,25.20
2022-08-16T20:28:40.657Z,25.20
2022-08-16T20:31:12.720Z,25.20
2022-08-16T20:33:41.005Z,25.20
2022-08-16T20:36:09.615Z,25.10
2022-08-16T20:38:47.864Z,25.00
2022-08-16T20:41:16.518Z,25.00
2022-08-16T20:43:45.517Z,25.00
2022-08-16T20:46:15.295Z,25.00
2022-08-16T20:48:43.933Z,24.80
2022-08-16T20:51:12.567Z,24.80
2022-08-16T20:53:41.822Z,24.70
2022-08-16T20:56:12.787Z,24.70
2022-08-16T20:58:40.938Z,24.70
2022-08-16T21:01:09.473Z,24.70
2022-08-16T21:03:37.770Z,24.70
2022-08-16T21:06:06.519Z,24.60
2022-08-16T21:08:53.552Z,24.50
2022-08-16T21:11:27.867Z,24.60
2022-08-16T21:14:00.362Z,24.50
2022-08-16T21:16:29.292Z,24.20
2022-08-16T21:18:57.830Z,24.00
2022-08-16T21:21:26.222Z,23.60
2022-08-16T21:24:01.762Z,23.00
2022-08-16T21:26:31.409Z,23.20
2022-08-16T21:28:59.507Z,23.50
2022-08-16T21:31:27.601Z,23.50
2022-08-16T21:33:56.082Z,23.60
2022-08-16T21:36:35.193Z,23.70
2022-08-16T21:39:06.316Z,23.80
2022-08-16T21:41:38.361Z,23.70
2022-08-16T21:44:06.744Z,23.80
2022-08-16T21:46:34.947Z,23.80
2022-08-16T21:49:04.664Z,23.80
2022-08-16T21:51:33.376Z,23.70
2022-08-16T21:54:01.484Z,23.80
2022-08-16T21:56:29.961Z,23.80
2022-08-16T21:58:59.486Z,23.80
2022-08-16T22:01:27.682Z,23.80
2022-08-16T22:04:03.542Z,23.80
2022-08-16T22:06:45.236Z,23.80
2022-08-16T22:09:16.264Z,23.80
2022-08-16T22:11:44.815Z,23.70
2022-08-16T22:14:14.715Z,23.70
2022-08-16T22:16:43.510Z,23.50
2022-08-16T22:19:13.283Z,23.30
2022-08-16T22:21:41.925Z,23.10
2022-08-16T22:24:10.910Z,23.30
2022-08-16T22:26:43.260Z,23.40
2022-08-16T22:29:15.201Z,23.20
2022-08-16T22:31:44.477Z,23.40
2022-08-16T22:34:13.107Z,23.40
2022-08-16T22:36:41.592Z,23.30
2022-08-16T22:39:13.017Z,23.30
2022-08-16T22:41:43.369Z,23.40
2022-08-16T22:44:12.857Z,23.50
2022-08-16T22:46:42.815Z,23.60
2022-08-16T22:49:11.834Z,23.60
2022-08-16T22:51:40.300Z,23.60
2022-08-16T22:54:41.381Z,23.50
2022-08-16T22:56:57.745Z,23.50
2022-08-16T22:59:26.248Z,23.50
2022-08-16T23:01:56.462Z,23.50
2022-08-16T23:04:25.690Z,23.60
2022-08-16T23:06:54.481Z,23.50
2022-08-16T23:09:22.559Z,23.50
2022-08-16T23:11:52.325Z,23.50
2022-08-16T23:14:20.765Z,23.50
2022-08-16T23:16:49.135Z,23.50
2022-08-16T23:19:19.034Z,23.40
2022-08-16T23:21:49.512Z,23.40
2022-08-16T23:24:19.418Z,23.40
2022-08-16T23:26:49.246Z,23.40
2022-08-16T23:29:24.771Z,23.40
2022-08-16T23:31:56.818Z,23.40
2022-08-16T23:34:28.324Z,23.30
2022-08-16T23:36:56.761Z,23.30
2022-08-16T23:39:25.411Z,23.20
2022-08-16T23:41:53.609Z,23.10
2022-08-16T23:44:55.563Z,23.20
2022-08-16T23:47:10.691Z,23.20
2022-08-16T23:49:57.666Z,23.10
2022-08-16T23:52:48.582Z,23.10
2022-08-16T23:55:17.572Z,23.10
2022-08-16T23:57:47.685Z,23.10
